createdAt,value
2022-09-26T00:01:43.206Z,6.90
2022-09-26T00:04:42.203Z,7.37
2022-09-26T00:07:09.914Z,6.97
2022-09-26T00:09:37.644Z,6.20
2022-09-26T00:12:07.146Z,6.60
2022-09-26T00:14:35.164Z,6.50
2022-09-26T00:17:02.790Z,6.43
2022-09-26T00:19:30.548Z,6.13
2022-09-26T00:21:58.141Z,6.33
2022-09-26T00:24:25.901Z,5.70
2022-09-26T00:26:53.560Z,6.47
2022-09-26T00:29:21.151Z,5.90
2022-09-26T00:31:49.291Z,6.13
2022-09-26T00:34:20.211Z,6.37
2022-09-26T00:36:49.744Z,6.97
2022-09-26T00:39:18.254Z,6.27
2022-09-26T00:41:46.199Z,6.90
2022-09-26T00:44:45.191Z,6.80
2022-09-26T00:48:06.595Z,7.37
2022-09-26T00:50:42.009Z,6.03
2022-09-26T00:53:32.483Z,6.93
2022-09-26T00:56:16.755Z,6.53
2022-09-26T00:59:14.457Z,5.97
2022-09-26T01:01:44.025Z,5.87
2022-09-26T01:04:15.290Z,6.67
2022-09-26T01:06:46.361Z,6.07
2022-09-26T01:09:17.154Z,6.37
2022-09-26T01:11:48.201Z,6.40
2022-09-26T01:14:21.697Z,6.00
2022-09-26T01:16:51.857Z,6.50
2022-09-26T01:19:46.472Z,6.30
2022-09-26T01:22:57.438Z,6.23
2022-09-26T01:26:35.564Z,5.50
2022-09-26T01:30:10.525Z,5.47
2022-09-26T01:33:16.610Z,6.00
2022-09-26T01:36:25.557Z,5.77
2022-09-26T01:39:18.234Z,5.67
2022-09-26T01:42:09.995Z,5.60
2022-09-26T01:45:19.061Z,6.07
2022-09-26T01:48:06.077Z,5.80
2022-09-26T01:51:07.839Z,6.27
2022-09-26T01:53:55.465Z,5.60
2022-09-26T01:56:34.597Z,5.73
2022-09-26T01:59:25.809Z,5.30
2022-09-26T02:02:08.387Z,5.57
2022-09-26T02:04:44.691Z,5.90
2022-09-26T02:07:38.709Z,5.63
2022-09-26T02:10:24.621Z,5.73
2022-09-26T02:13:08.184Z,5.60
2022-09-26T02:15:40.683Z,5.70
2022-09-26T02:18:35.185Z,6.20
2022-09-26T02:21:23.502Z,5.33
2022-09-26T02:23:54.900Z,5.50
2022-09-26T02:26:24.360Z,6.00
2022-09-26T02:28:53.153Z,6.27
2022-09-26T02:31:28.910Z,5.80
2022-09-26T02:33:57.081Z,6.43
2022-09-26T02:36:28.779Z,7.67
2022-09-26T02:38:57.409Z,6.60
2022-09-26T02:42:42.637Z,6.23
2022-09-26T02:45:52.391Z,7.23
2022-09-26T02:50:08.458Z,6.83
2022-09-26T02:53:24.905Z,6.97
2022-09-26T02:56:51.267Z,6.30
2022-09-26T02:59:57.861Z,7.00
2022-09-26T03:02:50.895Z,6.90
2022-09-26T03:05:30.982Z,7.70
2022-09-26T03:08:11.993Z,8.20
2022-09-26T03:10:42.791Z,8.20
2022-09-26T03:13:19.099Z,7.77
2022-09-26T03:15:58.629Z,8.30
2022-09-26T03:18:41.992Z,8.40
2022-09-26T03:21:10.193Z,7.80
2022-09-26T03:23:39.661Z,7.33
2022-09-26T03:26:18.486Z,7.80
2022-09-26T03:28:57.379Z,7.80
2022-09-26T03:31:28.504Z,7.27
2022-09-26T03:34:05.786Z,7.33
2022-09-26T03:36:33.766Z,8.63
2022-09-26T03:39:04.073Z,7.20
2022-09-26T03:41:42.304Z,8.00
2022-09-26T03:44:18.222Z,7.27
2022-09-26T03:47:05.317Z,7.20
2022-09-26T03:49:39.153Z,8.57
2022-09-26T03:52:12.253Z,8.90
2022-09-26T03:54:41.145Z,8.07
2022-09-26T03:57:12.925Z,7.80
2022-09-26T03:59:47.798Z,8.60
2022-09-26T04:02:17.411Z,8.53
2022-09-26T04:04:49.219Z,7.90
2022-09-26T04:07:17.184Z,8.70
2022-09-26T04:09:44.851Z,10.27
2022-09-26T04:12:12.916Z,8.03
2022-09-26T04:14:44.337Z,9.00
2022-09-26T04:17:13.596Z,7.77
2022-09-26T04:19:44.341Z,8.53
2022-09-26T04:22:12.546Z,9.73
2022-09-26T04:24:41.796Z,9.53
2022-09-26T04:27:09.345Z,8.67
2022-09-26T04:29:37.901Z,8.67
2022-09-26T04:32:12.681Z,9.90
2022-09-26T04:34:52.994Z,9.27
2022-09-26T04:37:24.164Z,9.47
2022-09-26T04:39:51.884Z,9.60
2022-09-26T04:42:19.934Z,10.13
2022-09-26T04:44:48.273Z,9.63
2022-09-26T04:47:17.832Z,8.60
2022-09-26T04:50:09.339Z,9.63
2022-09-26T04:52:37.046Z,9.53
2022-09-26T04:55:05.719Z,9.27
2022-09-26T04:57:34.094Z,9.10
2022-09-26T05:00:02.426Z,9.07
2022-09-26T05:02:30.575Z,9.50
2022-09-26T05:05:00.227Z,8.07
2022-09-26T05:07:29.601Z,8.67
2022-09-26T05:09:57.652Z,9.20
2022-09-26T05:12:26.523Z,9.13
2022-09-26T05:14:56.726Z,10.10
2022-09-26T05:17:24.572Z,8.33
2022-09-26T05:19:54.628Z,9.63
2022-09-26T05:22:45.150Z,8.97
2022-09-26T05:25:31.582Z,8.37
2022-09-26T05:28:01.701Z,8.97
2022-09-26T05:30:31.411Z,10.03
2022-09-26T05:33:00.015Z,8.53
2022-09-26T05:35:27.856Z,9.40
2022-09-26T05:38:05.901Z,8.50
2022-09-26T05:40:55.422Z,7.90
2022-09-26T05:43:30.005Z,9.93
2022-09-26T05:46:04.193Z,8.70
2022-09-26T05:48:40.214Z,8.00
2022-09-26T05:51:21.381Z,8.30
2022-09-26T05:53:50.641Z,7.10
2022-09-26T05:56:21.412Z,7.40
2022-09-26T05:59:09.402Z,7.50
2022-09-26T06:01:58.819Z,6.97
2022-09-26T06:04:49.476Z,6.47
2022-09-26T06:07:35.727Z,7.00
2022-09-26T06:10:06.599Z,7.20
2022-09-26T06:12:41.297Z,6.20
2022-09-26T06:15:10.147Z,5.93
2022-09-26T06:17:38.677Z,5.27
2022-09-26T06:20:08.998Z,5.27
2022-09-26T06:22:44.215Z,5.20
2022-09-26T06:25:13.106Z,5.37
2022-09-26T06:27:41.075Z,4.97
2022-09-26T06:30:11.745Z,4.47
2022-09-26T06:32:39.754Z,4.10
2022-09-26T06:35:23.003Z,4.37
2022-09-26T06:38:09.957Z,3.83
2022-09-26T06:40:38.133Z,4.03
2022-09-26T06:43:06.052Z,3.70
2022-09-26T06:46:10.278Z,3.63
2022-09-26T06:48:48.657Z,3.60
2022-09-26T06:51:20.881Z,3.60
2022-09-26T06:53:48.697Z,3.33
2022-09-26T06:56:21.302Z,4.30
2022-09-26T06:58:49.883Z,3.80
2022-09-26T07:01:20.481Z,3.27
2022-09-26T07:03:55.343Z,4.20
2022-09-26T07:06:36.678Z,3.80
2022-09-26T07:09:11.256Z,4.13
2022-09-26T07:12:14.045Z,5.20
2022-09-26T07:14:43.058Z,3.87
2022-09-26T07:17:24.373Z,4.27
2022-09-26T07:20:15.763Z,4.27
2022-09-26T07:23:11.152Z,4.10
2022-09-26T07:25:40.707Z,4.03
2022-09-26T07:28:10.875Z,4.67
2022-09-26T07:30:45.027Z,5.10
2022-09-26T07:33:25.029Z,4.07
2022-09-26T07:35:54.062Z,4.50
2022-09-26T07:38:25.999Z,4.53
2022-09-26T07:40:55.261Z,4.10
2022-09-26T07:43:35.884Z,4.97
2022-09-26T07:46:29.323Z,4.67
2022-09-26T07:49:18.310Z,5.40
2022-09-26T07:52:00.774Z,5.83
2022-09-26T07:54:54.817Z,4.60
2022-09-26T07:57:43.104Z,4.53
2022-09-26T08:00:26.519Z,5.30
2022-09-26T08:03:14.777Z,5.40
2022-09-26T08:05:44.253Z,4.40
2022-09-26T08:08:12.024Z,4.20
2022-09-26T08:10:52.452Z,4.83
2022-09-26T08:13:20.118Z,5.80
2022-09-26T08:16:25.318Z,4.80
2022-09-26T08:18:57.489Z,4.13
2022-09-26T08:21:26.185Z,4.67
2022-09-26T08:23:57.266Z,4.10
2022-09-26T08:26:48.098Z,3.90
2022-09-26T08:29:27.340Z,4.60
2022-09-26T08:31:58.348Z,4.13
2022-09-26T08:34:26.088Z,3.43
2022-09-26T08:37:14.282Z,5.03
2022-09-26T08:40:01.015Z,3.93
2022-09-26T08:44:22.709Z,3.73
2022-09-26T08:47:57.876Z,3.97
2022-09-26T08:50:46.745Z,3.67
2022-09-26T08:53:29.227Z,3.80
2022-09-26T08:56:04.700Z,3.70
2022-09-26T08:58:48.333Z,3.80
2022-09-26T09:01:30.508Z,3.20
2022-09-26T09:04:53.783Z,4.07
2022-09-26T09:07:27.545Z,4.40
2022-09-26T09:10:15.554Z,4.70
2022-09-26T09:13:21.749Z,4.80
2022-09-26T09:17:04.481Z,5.27
2022-09-26T09:20:45.875Z,5.13
2022-09-26T09:24:11.753Z,5.60
2022-09-26T09:30:43.786Z,5.63
2022-09-26T09:33:42.580Z,6.70
2022-09-26T09:36:48.373Z,6.07
2022-09-26T09:39:44.645Z,5.60
2022-09-26T09:42:46.171Z,5.57
2022-09-26T09:45:37.237Z,6.33
2022-09-26T09:48:12.367Z,5.30
2022-09-26T09:51:33.256Z,4.47
2022-09-26T09:54:40.982Z,3.40
2022-09-26T09:58:07.768Z,4.60
2022-09-26T10:00:51.695Z,3.90
2022-09-26T10:03:49.189Z,3.63
2022-09-26T10:06:46.099Z,3.67
2022-09-26T10:09:41.131Z,3.90
2022-09-26T10:12:30.815Z,3.00
2022-09-26T10:15:27.609Z,3.80
2022-09-26T10:18:26.388Z,3.00
2022-09-26T10:21:19.130Z,3.30
2022-09-26T10:23:52.887Z,3.20
2022-09-26T10:26:36.916Z,4.13
2022-09-26T10:29:34.641Z,3.63
2022-09-26T10:32:04.183Z,3.03
2022-09-26T10:34:40.844Z,3.50
2022-09-26T10:37:30.684Z,4.10
2022-09-26T10:40:47.946Z,3.70
2022-09-26T10:43:41.722Z,3.97
2022-09-26T10:46:22.677Z,3.67
2022-09-26T10:49:41.053Z,3.53
2022-09-26T10:52:51.386Z,3.87
2022-09-26T10:55:49.700Z,3.60
2022-09-26T10:58:29.591Z,3.80
2022-09-26T11:01:04.278Z,3.67
2022-09-26T11:03:45.919Z,2.70
2022-09-26T11:06:43.987Z,2.90
2022-09-26T11:09:38.490Z,3.10
2022-09-26T11:12:40.112Z,3.10
2022-09-26T11:15:15.148Z,3.60
2022-09-26T11:17:51.144Z,3.33
2022-09-26T11:20:50.861Z,3.00
2022-09-26T11:24:37.547Z,3.50
2022-09-26T11:30:37.928Z,3.73
2022-09-26T11:37:18.190Z,2.83
2022-09-26T11:40:39.638Z,3.10
2022-09-26T11:43:50.295Z,2.60
2022-09-26T11:48:06.745Z,3.73
2022-09-26T11:51:34.648Z,3.27
2022-09-26T11:54:40.208Z,2.87
2022-09-26T11:58:34.098Z,2.87
2022-09-26T12:02:02.089Z,2.60
2022-09-26T12:05:37.394Z,3.30
2022-09-26T12:09:12.456Z,3.07
2022-09-26T12:12:11.612Z,3.23
2022-09-26T12:15:23.476Z,3.20
2022-09-26T12:18:59.653Z,3.10
2022-09-26T12:22:23.463Z,2.97
2022-09-26T12:26:22.339Z,3.13
2022-09-26T12:29:48.864Z,2.70
2022-09-26T12:32:41.564Z,2.87
2022-09-26T12:36:07.342Z,3.23
2022-09-26T12:39:05.665Z,2.90
2022-09-26T12:42:30.028Z,3.17
2022-09-26T12:46:21.554Z,2.80
2022-09-26T12:49:24.024Z,2.87
2022-09-26T12:52:27.499Z,3.50
2022-09-26T12:55:29.853Z,3.40
2022-09-26T12:58:44.387Z,3.37
2022-09-26T13:02:06.144Z,3.10
2022-09-26T13:05:45.635Z,2.83
2022-09-26T13:09:16.352Z,2.43
2022-09-26T13:12:38.999Z,3.17
2022-09-26T13:16:02.561Z,3.67
2022-09-26T13:18:46.077Z,3.57
2022-09-26T13:21:29.247Z,3.33
2022-09-26T13:24:14.256Z,3.00
2022-09-26T13:27:10.348Z,2.93
2022-09-26T13:29:44.089Z,3.13
2022-09-26T13:32:47.712Z,2.87
2022-09-26T13:35:31.804Z,2.90
2022-09-26T13:38:39.922Z,3.23
2022-09-26T13:41:26.433Z,4.77
2022-09-26T13:44:55.885Z,3.40
2022-09-26T13:47:58.913Z,3.50
2022-09-26T13:50:56.136Z,3.03
2022-09-26T13:54:11.596Z,4.00
2022-09-26T13:56:39.269Z,3.07
2022-09-26T13:59:12.725Z,3.93
2022-09-26T14:02:24.974Z,4.07
2022-09-26T14:05:19.019Z,4.30
2022-09-26T14:08:12.031Z,4.07
2022-09-26T14:10:53.290Z,4.03
2022-09-26T14:13:38.045Z,3.70
2022-09-26T14:16:29.116Z,4.90
2022-09-26T14:19:41.564Z,3.57
2022-09-26T14:22:21.029Z,3.90
2022-09-26T14:24:51.053Z,3.97
2022-09-26T14:27:18.670Z,3.90
2022-09-26T14:30:31.024Z,3.60
2022-09-26T14:33:13.063Z,5.20
2022-09-26T14:35:41.503Z,5.00
2022-09-26T14:38:20.492Z,4.70
2022-09-26T14:40:59.732Z,4.97
2022-09-26T14:43:31.358Z,5.13
2022-09-26T14:46:27.280Z,4.50
2022-09-26T14:49:05.521Z,6.33
2022-09-26T14:51:42.768Z,5.07
2022-09-26T14:54:46.333Z,4.90
2022-09-26T14:57:31.455Z,4.30
2022-09-26T15:00:02.776Z,4.23
2022-09-26T15:02:41.798Z,4.13
2022-09-26T15:05:25.254Z,4.43
2022-09-26T15:08:00.464Z,4.90
2022-09-26T15:10:43.345Z,4.20
2022-09-26T15:13:46.280Z,4.00
2022-09-26T15:16:51.043Z,4.80
2022-09-26T15:19:45.540Z,4.20
2022-09-26T15:22:23.934Z,4.27
2022-09-26T15:25:25.044Z,6.07
2022-09-26T15:27:58.442Z,4.70
2022-09-26T15:30:42.081Z,5.07
2022-09-26T15:33:18.599Z,5.57
2022-09-26T15:35:55.714Z,4.70
2022-09-26T15:38:25.105Z,5.53
2022-09-26T15:41:05.271Z,4.30
2022-09-26T15:43:36.193Z,4.90
2022-09-26T15:46:26.885Z,4.77
2022-09-26T15:48:54.565Z,5.70
2022-09-26T15:51:38.275Z,6.40
2022-09-26T15:54:22.865Z,5.63
2022-09-26T15:56:52.455Z,6.17
2022-09-26T15:59:44.540Z,5.60
2022-09-26T16:02:32.916Z,6.60
2022-09-26T16:05:01.286Z,6.80
2022-09-26T16:07:33.193Z,6.10
2022-09-26T16:10:38.572Z,6.40
2022-09-26T16:13:26.789Z,6.77
2022-09-26T16:16:21.421Z,6.13
2022-09-26T16:19:05.429Z,6.47
2022-09-26T16:21:36.800Z,7.47
2022-09-26T16:24:34.467Z,9.00
2022-09-26T16:27:02.373Z,8.10
2022-09-26T16:29:36.141Z,8.40
2022-09-26T16:32:06.217Z,8.07
2022-09-26T16:34:34.162Z,9.20
2022-09-26T16:37:02.033Z,9.60
2022-09-26T16:39:32.627Z,10.33
2022-09-26T16:42:17.459Z,9.50
2022-09-26T16:44:57.695Z,9.33
2022-09-26T16:47:47.941Z,9.47
2022-09-26T16:50:33.478Z,8.30
2022-09-26T16:53:03.214Z,6.60
2022-09-26T16:55:36.484Z,6.90
2022-09-26T16:58:06.914Z,6.53
2022-09-26T17:00:55.060Z,6.50
2022-09-26T17:03:32.219Z,5.90
2022-09-26T17:06:01.203Z,6.80
2022-09-26T17:08:29.601Z,7.00
2022-09-26T17:11:04.252Z,7.03
2022-09-26T17:13:35.838Z,6.90
2022-09-26T17:16:04.180Z,7.83
2022-09-26T17:18:33.259Z,6.70
2022-09-26T17:21:02.508Z,7.10
2022-09-26T17:23:41.450Z,7.43
2022-09-26T17:26:23.981Z,8.63
2022-09-26T17:28:54.148Z,7.50
2022-09-26T17:31:22.055Z,7.73
2022-09-26T17:33:53.709Z,7.10
2022-09-26T17:36:29.936Z,7.80
2022-09-26T17:39:00.236Z,8.27
2022-09-26T17:41:29.926Z,7.47
2022-09-26T17:44:01.172Z,7.97
2022-09-26T17:46:30.422Z,7.97
2022-09-26T17:48:59.497Z,9.10
2022-09-26T17:51:27.400Z,7.83
2022-09-26T17:53:57.632Z,10.07
2022-09-26T17:56:26.453Z,10.03
2022-09-26T17:58:55.078Z,10.47
2022-09-26T18:01:34.691Z,10.87
2022-09-26T18:04:13.585Z,9.80
2022-09-26T18:06:43.024Z,9.30
2022-09-26T18:09:16.814Z,9.30
2022-09-26T18:12:00.944Z,11.37
2022-09-26T18:14:34.329Z,11.40
2022-09-26T18:17:02.676Z,11.50
2022-09-26T18:19:31.693Z,10.50
2022-09-26T18:21:59.591Z,10.73
2022-09-26T18:24:30.447Z,9.10
2022-09-26T18:27:04.076Z,10.87
2022-09-26T18:29:41.277Z,10.50
2022-09-26T18:32:41.811Z,9.90
2022-09-26T18:35:24.896Z,10.70
2022-09-26T18:37:56.010Z,9.17
2022-09-26T18:40:30.245Z,9.33
2022-09-26T18:42:58.981Z,9.53
2022-09-26T18:45:36.058Z,10.03
2022-09-26T18:48:14.367Z,10.30
2022-09-26T18:50:42.272Z,10.50
2022-09-26T18:53:21.878Z,10.00
2022-09-26T18:56:08.802Z,11.83
2022-09-26T18:58:36.769Z,11.10
2022-09-26T19:01:43.105Z,12.20
2022-09-26T19:04:32.510Z,12.27
2022-09-26T19:07:07.494Z,13.40
2022-09-26T19:09:37.041Z,12.27
2022-09-26T19:12:06.691Z,11.90
2022-09-26T19:14:35.588Z,13.00
2022-09-26T19:17:03.849Z,11.80
2022-09-26T19:19:32.673Z,9.80
2022-09-26T19:22:14.605Z,10.77
2022-09-26T19:24:58.317Z,11.30
2022-09-26T19:27:50.515Z,9.80
2022-09-26T19:30:22.421Z,9.57
2022-09-26T19:32:56.356Z,9.80
2022-09-26T19:35:42.097Z,10.87
2022-09-26T19:38:27.005Z,9.67
2022-09-26T19:40:54.791Z,10.03
2022-09-26T19:43:23.316Z,9.60
2022-09-26T19:45:54.965Z,11.17
2022-09-26T19:48:24.758Z,12.23
2022-09-26T19:50:53.024Z,10.87
2022-09-26T19:53:24.223Z,11.10
2022-09-26T19:55:52.993Z,10.17
2022-09-26T19:58:26.213Z,10.07
2022-09-26T20:01:06.914Z,9.73
2022-09-26T20:03:41.882Z,10.43
2022-09-26T20:06:26.390Z,9.83
2022-09-26T20:09:01.782Z,9.40
2022-09-26T20:11:29.752Z,9.10
2022-09-26T20:14:16.426Z,9.60
2022-09-26T20:16:44.549Z,9.27
2022-09-26T20:19:42.834Z,8.97
2022-09-26T20:22:22.628Z,9.93
2022-09-26T20:24:55.620Z,10.27
2022-09-26T20:27:29.612Z,9.80
2022-09-26T20:30:16.091Z,10.57
2022-09-26T20:32:43.986Z,11.23
2022-09-26T20:35:15.885Z,11.13
2022-09-26T20:37:44.934Z,11.77
2022-09-26T20:40:24.309Z,12.27
2022-09-26T20:43:06.294Z,13.53
2022-09-26T20:45:41.268Z,14.87
2022-09-26T20:48:24.498Z,13.50
2022-09-26T20:50:53.002Z,14.13
2022-09-26T20:53:25.044Z,13.20
2022-09-26T20:55:55.312Z,14.73
2022-09-26T20:58:24.082Z,14.70
2022-09-26T21:00:53.334Z,14.37
2022-09-26T21:03:25.356Z,14.30
2022-09-26T21:05:53.265Z,13.60
2022-09-26T21:08:30.505Z,14.37
2022-09-26T21:10:59.385Z,14.80
2022-09-26T21:13:29.412Z,15.10
2022-09-26T21:15:57.636Z,16.67
2022-09-26T21:18:30.738Z,15.23
2022-09-26T21:21:21.361Z,16.00
2022-09-26T21:24:00.375Z,15.00
2022-09-26T21:26:31.417Z,15.53
2022-09-26T21:28:59.273Z,16.10
2022-09-26T21:31:35.548Z,17.90
2022-09-26T21:34:10.761Z,17.93
2022-09-26T21:36:41.177Z,17.93
2022-09-26T21:39:08.996Z,17.97
2022-09-26T21:41:37.729Z,17.23
2022-09-26T21:44:22.408Z,17.30
2022-09-26T21:46:51.860Z,17.37
2022-09-26T21:49:21.542Z,18.67
2022-09-26T21:52:08.072Z,18.67
2022-09-26T21:54:45.829Z,19.13
2022-09-26T21:57:25.891Z,17.77
2022-09-26T21:59:56.504Z,18.70
2022-09-26T22:02:25.965Z,18.30
2022-09-26T22:04:53.700Z,19.47
2022-09-26T22:07:22.021Z,19.00
2022-09-26T22:09:49.793Z,18.73
2022-09-26T22:12:17.545Z,21.30
2022-09-26T22:14:45.439Z,20.50
2022-09-26T22:17:13.158Z,22.50
2022-09-26T22:19:41.134Z,21.43
2022-09-26T22:22:10.203Z,21.17
2022-09-26T22:24:38.482Z,21.70
2022-09-26T22:27:06.926Z,23.20
2022-09-26T22:29:34.762Z,27.67
2022-09-26T22:32:04.014Z,24.57
2022-09-26T22:34:32.799Z,19.90
2022-09-26T22:37:01.098Z,17.47
2022-09-26T22:39:28.862Z,14.00
2022-09-26T22:41:56.489Z,12.27
2022-09-26T22:44:24.578Z,12.10
2022-09-26T22:46:52.394Z,10.50
2022-09-26T22:49:20.185Z,10.53
2022-09-26T22:51:48.442Z,9.13
2022-09-26T22:54:16.318Z,6.90
2022-09-26T22:56:44.007Z,7.40
2022-09-26T22:59:12.458Z,8.87
2022-09-26T23:01:40.422Z,6.77
2022-09-26T23:04:08.318Z,6.90
2022-09-26T23:06:36.710Z,5.47
2022-09-26T23:09:04.609Z,6.27
2022-09-26T23:11:33.017Z,7.40
2022-09-26T23:14:00.721Z,6.77
2022-09-26T23:16:28.709Z,7.47
2022-09-26T23:18:58.842Z,7.00
2022-09-26T23:21:28.325Z,7.43
2022-09-26T23:24:01.025Z,6.10
2022-09-26T23:26:32.555Z,6.70
2022-09-26T23:29:00.839Z,5.07
2022-09-26T23:31:29.443Z,6.03
2022-09-26T23:33:58.028Z,6.70
2022-09-26T23:36:27.330Z,5.97
2022-09-26T23:38:58.668Z,6.20
2022-09-26T23:41:26.912Z,4.77
2022-09-26T23:43:54.692Z,5.47
2022-09-26T23:46:22.541Z,4.77
2022-09-26T23:48:50.305Z,4.40
2022-09-26T23:51:18.010Z,5.80
2022-09-26T23:53:46.282Z,4.27
2022-09-26T23:56:15.232Z,4.97
2022-09-26T23:58:43.700Z,4.10
